KMYV/MYV METAR and TAF weather

Enter ICAO airport designator
Station Type Date Time Source
KMYV METAR 2018/12/11 20:53 UTC NOAA

KMYV 112053Z AUTO 15008KT 9SM CLR 12/06 A3018 RMK AO2 SLP224 T01220061 58018


Station Type Date Time Source
KMYV Decoded METAR 2018/12/11 20:53 UTC NOAA

MARYSVILLE YUBA COUNTY, CA, United States (KMYV) 39-06N 121-34W 21M
Dec 11, 2018 - 03:53 PM EST / 2018.12.11 2053 UTC
Wind: from the SSE (150 degrees) at 9 MPH (8 KT):0
Visibility: 9 mile(s):0
Sky conditions: clear
Temperature: 54.0 F (12.2 C)
Dew Point: 43.0 F (6.1 C)
Relative Humidity: 66%
Pressure (altimeter): 30.18 in. Hg (1022 hPa)
Pressure tendency: 0.05 inches (1.8 hPa) lower than three hours ago
ob: KMYV 112053Z AUTO 15008KT 9SM CLR 12/06 A3018 RMK AO2 SLP224 T01220061 58018
cycle: 21

Station Type Date Time Source
KMYV TAF UTC NOAA

Error!


Example: see airport list